Latest Weather Observations for Orange Airport

IDN60801

Issued at 6:03 am EDT Friday 27 March 2015 (issued every 30 minutes, with the page automatically refreshed every 10 minutes)

About weather observations | Map of weather stations | Latest weather observations for NSW | Other Formats
Station Details ID: 063303 Name: ORANGE AIRPORT AWS Lat: -33.38 Lon: 149.13 Height: 944.65 m
Data from the previous 72 hours. | See also: Recent months at Orange Airport
Date/Time
EDT
Temp
°C
App
Temp
°C
Dew
Point
Rel
Hum
%
Delta-T
°C
Wind Press
QNH
hPa
Press
MSL
hPa
Rain
since 9 am
mm
Dir
 
Spd
km/h
Gust
km/h
Spd
kts
Gust
kts
27/06:00am 5.3 0.7 -0.7 65 2.4 SSW 13 19 7 10 1022.8 1019.4 0.0
27/05:30am 5.3 1.1 -0.9 64 2.5 SSW 11 17 6 9 1022.4 1019.1 0.0
27/05:00am 5.6 0.6 -0.9 63 2.6 SW 15 22 8 12 1022.4 1019.1 0.0
27/04:30am 5.1 0.5 -1.3 63 2.5 SW 13 17 7 9 1022.4 1019.1 0.0
27/04:00am 5.7 0.7 -1.2 61 2.7 SSW 15 20 8 11 1022.3 1019.0 0.0
27/03:30am 6.0 0.6 -1.4 59 2.9 SSW 17 22 9 12 1022.7 1019.3 0.0
27/03:00am 6.1 0.7 -1.5 58 3.0 SSW 17 24 9 13 1022.7 1019.3 0.0
27/02:30am 6.5 1.1 -1.6 56 3.2 SSW 17 22 9 12 1023.0 1019.6 0.0
27/02:00am 6.8 1.4 -1.6 55 3.3 SSW 17 24 9 13 1023.4 1020.1 0.0
27/01:30am 7.2 0.8 -2.0 52 3.6 SW 22 30 12 16 1023.3 1020.0 0.0
27/01:00am 7.4 0.6 -2.1 51 3.7 SW 24 32 13 17 1023.3 1020.0 0.0
27/12:30am 7.8 1.0 -2.2 49 4.0 SW 24 32 13 17 1023.4 1020.1 0.0
27/12:00am 8.2 2.1 -2.1 48 4.1 SW 20 28 11 15 1023.5 1020.2 0.0
 
Date/Time
EDT
Temp
°C
App
Temp
°C
Dew
Point
Rel
Hum
%
Delta-T
°C
Wind Press
QNH
hPa
Press
MSL
hPa
Rain
since 9 am
mm
Dir
 
Spd
km/h
Gust
km/h
Spd
kts
Gust
kts
26/11:30pm 7.9 3.2 -1.6 51 3.8 SW 13 20 7 11 1023.6 1020.3 0.0
26/11:00pm 7.7 3.4 -1.5 52 3.7 SW 11 17 6 9 1023.6 1020.3 0.0
26/10:30pm 7.7 3.0 -1.8 51 3.8 SW 13 19 7 10 1023.6 1020.3 0.0
26/10:00pm 8.5 3.4 -1.9 48 4.2 SW 15 20 8 11 1023.5 1020.2 0.0
26/09:30pm 9.4 3.0 -1.9 45 4.6 SW 22 32 12 17 1023.4 1020.1 0.0
26/09:00pm 9.3 3.2 -2.0 45 4.5 WSW 20 26 11 14 1023.3 1020.0 0.0
26/08:30pm 9.9 4.6 -0.3 49 4.3 WSW 17 22 9 12 1022.9 1019.5 0.0
26/08:00pm 10.5 5.5 1.6 54 3.9 WSW 17 22 9 12 1022.3 1019.0 0.0
26/07:30pm 11.6 6.2 2.6 54 4.1 WSW 20 26 11 14 1022.0 1018.6 0.0
26/07:00pm 12.7 5.9 3.1 52 4.5 WSW 28 33 15 18 1021.8 1018.4 0.0
26/06:30pm 14.1 7.8 3.8 50 4.9 SW 26 37 14 20 1021.6 1018.2 0.0
26/06:00pm 15.2 7.7 3.7 46 5.5 WSW 32 43 17 23 1021.1 1017.7 0.0
26/05:30pm 16.0 8.4 3.1 42 6.2 W 32 39 17 21 1020.9 1017.5 0.0
26/05:00pm 16.9 9.1 2.9 39 6.7 WSW 33 44 18 24 1020.7 1017.3 0.0
26/04:30pm 17.6 10.7 2.8 37 7.1 W 28 39 15 21 1020.5 1017.1 0.0
26/04:13pm 17.1 10.1 1.9 36 7.2 WSW 28 46 15 25 1020.7 1017.3 0.0
26/04:00pm 17.2 10.3 2.4 37 7.0 WSW 28 39 15 21 1020.8 1017.4 0.0
26/03:30pm 17.1 10.9 1.9 36 7.2 W 24 41 13 22 1020.8 1017.4 0.0
26/03:00pm 17.9 11.2 3.4 38 7.1 WSW 28 43 15 23 1020.9 1017.5 0.0
26/02:30pm 17.5 10.2 2.7 37 7.1 WSW 30 37 16 20 1020.9 1017.5 0.0
26/02:00pm 17.0 10.9 2.6 38 6.9 WSW 24 32 13 17 1021.0 1017.6 0.0
26/01:30pm 15.9 8.1 1.6 38 6.7 WSW 32 41 17 22 1021.2 1017.8 0.0
26/01:00pm 16.2 10.7 1.9 38 6.7 WSW 20 33 11 18 1021.3 1017.9 0.0
26/12:30pm 15.8 9.6 2.2 40 6.4 WSW 24 35 13 19 1021.8 1018.4 0.0
26/12:00pm 14.6 8.0 1.8 42 5.9 SW 26 35 14 19 1021.9 1018.5 0.0
26/11:30am 13.9 8.7 2.2 45 5.4 SW 19 32 10 17 1021.9 1018.5 0.0
26/11:00am 13.9 8.7 2.2 45 5.4 WSW 19 26 10 14 1021.8 1018.4 0.0
26/10:30am 13.6 7.8 2.5 47 5.2 SW 22 30 12 16 1021.7 1018.3 0.0
26/10:00am 13.1 7.7 2.4 48 4.9 WSW 20 30 11 16 1021.4 1018.1 0.0
26/09:30am 12.4 8.3 4.1 57 4.0 SW 15 19 8 10 1021.3 1017.9 0.0
26/09:00am 11.6 8.6 4.1 60 3.5 SW 9 13 5 7 1021.1 1017.7 0.0
26/08:30am 10.5 7.7 5.1 69 2.6 SW 9 11 5 6 1020.9 1017.5 0.0
26/08:00am 9.1 5.9 5.1 76 1.9 SSW 11 15 6 8 1020.5 1017.1 0.0
26/07:30am 7.7 4.7 3.9 77 1.7 S 9 11 5 6 1020.2 1016.8 0.0
26/07:00am 7.8 4.1 4.2 78 1.7 SW 13 15 7 8 1020.1 1016.7 0.0
26/06:30am 8.0 3.9 4.4 78 1.7 SW 15 17 8 9 1019.9 1016.5 0.0
26/06:00am 7.8 4.0 4.0 77 1.7 SW 13 15 7 8 1019.7 1016.3 0.0
26/05:30am 7.8 4.0 3.8 76 1.8 SW 13 13 7 7 1019.6 1016.2 0.0
26/05:00am 7.5 3.7 3.7 77 1.7 SW 13 15 7 8 1019.5 1016.1 0.0
26/04:30am 7.0 3.1 3.6 79 1.5 SW 13 17 7 9 1019.4 1015.9 0.0
26/04:00am 5.2 2.0 3.1 86 0.9 SSW 9 13 5 7 1019.6 1016.2 0.0
26/03:30am 5.4 2.5 2.6 82 1.2 SW 7 9 4 5 1019.6 1016.2 0.0
26/03:00am 6.4 4.8 2.7 77 1.6 CALM 0 0 0 0 1019.7 1016.3 0.0
26/02:30am 7.3 5.7 2.4 71 2.2 CALM 0 0 0 0 1019.9 1016.5 0.0
26/02:00am 7.3 5.7 2.4 71 2.1 CALM 0 0 0 0 1020.0 1016.6 0.0
26/01:30am 6.5 4.7 1.4 70 2.2 CALM 0 0 0 0 1020.0 1016.6 0.0
26/01:00am 9.5 6.1 2.1 60 3.3 SW 9 11 5 6 1019.9 1016.5 0.0
26/12:30am 8.0 6.4 2.3 67 2.5 CALM 0 9 0 5 1019.9 1016.5 0.0
26/12:00am 8.0 6.2 1.2 62 2.9 CALM 0 0 0 0 1019.9 1016.5 0.0
 
Date/Time
EDT
Temp
°C
App
Temp
°C
Dew
Point
Rel
Hum
%
Delta-T
°C
Wind Press
QNH
hPa
Press
MSL
hPa
Rain
since 9 am
mm
Dir
 
Spd
km/h
Gust
km/h
Spd
kts
Gust
kts
25/11:30pm 10.4 5.8 1.8 55 3.8 SW 15 17 8 9 1019.9 1016.5 0.0
25/11:00pm 10.6 6.1 1.9 55 3.9 SW 15 19 8 10 1020.0 1016.6 0.0
25/10:30pm 11.1 6.6 2.2 54 4.0 SW 15 17 8 9 1019.9 1016.5 0.0
25/10:00pm 11.2 6.4 2.8 56 3.8 SW 17 17 9 9 1019.9 1016.5 0.0
25/09:30pm 11.7 7.0 3.0 55 4.0 SW 17 19 9 10 1019.6 1016.2 0.0
25/09:00pm 12.0 8.6 3.8 57 3.9 SW 11 15 6 8 1019.5 1016.1 0.0
25/08:30pm 12.9 10.0 4.8 58 3.9 W 9 9 5 5 1019.0 1015.6 0.0
25/08:00pm 13.5 10.3 3.3 50 4.8 WNW 9 11 5 6 1018.9 1015.5 0.0
25/07:30pm 14.3 10.6 2.5 45 5.5 NW 11 13 6 7 1018.7 1015.3 0.0
25/07:00pm 15.5 11.5 2.7 42 6.1 NW 13 15 7 8 1018.4 1014.9 0.0
25/06:30pm 18.2 13.3 1.7 33 7.8 NW 17 20 9 11 1018.1 1014.6 0.0
25/06:00pm 19.4 15.2 1.9 31 8.4 NNW 13 19 7 10 1017.6 1014.2 0.0
25/05:30pm 19.6 15.5 2.5 32 8.3 NNW 13 20 7 11 1017.5 1014.0 0.0
25/05:00pm 20.1 15.7 2.9 32 8.5 NW 15 20 8 11 1017.6 1014.2 0.0
25/04:30pm 20.5 16.3 3.7 33 8.4 NNW 15 26 8 14 1017.7 1014.3 0.0
25/04:00pm 20.7 16.9 3.9 33 8.5 NW 13 20 7 11 1017.8 1014.4 0.0
25/03:30pm 20.3 17.2 3.5 33 8.4 WNW 9 19 5 10 1017.8 1014.4 0.0
25/03:00pm 20.5 17.3 5.3 37 7.8 NW 11 17 6 9 1017.8 1014.4 0.0
25/02:30pm 19.4 16.1 4.7 38 7.5 N 11 20 6 11 1018.1 1014.6 0.0
25/02:00pm 18.9 14.7 3.9 37 7.5 N 15 24 8 13 1018.1 1014.6 0.0
25/01:30pm 18.4 14.5 3.5 37 7.3 NNW 13 20 7 11 1018.5 1015.0 0.0
25/01:00pm 18.3 14.4 5.2 42 6.7 NNW 15 20 8 11 1018.9 1015.5 0.0
25/12:30pm 17.2 13.1 4.5 43 6.3 NNE 15 20 8 11 1018.9 1015.5 0.0
25/12:00pm 17.0 13.2 5.9 48 5.7 NNE 15 24 8 13 1018.9 1015.5 0.0
25/11:30am 15.7 11.8 5.3 50 5.2 N 15 24 8 13 1019.1 1015.7 0.0
25/11:00am 15.4 11.4 6.7 56 4.5 NE 17 24 9 13 1019.3 1015.8 0.0
25/10:30am 14.5 11.4 7.3 62 3.7 ENE 13 19 7 10 1019.4 1015.9 0.0
25/10:00am 13.9 10.7 7.0 63 3.5 ENE 13 22 7 12 1019.0 1015.6 0.0
25/09:30am 12.9 10.5 8.6 75 2.3 ENE 11 15 6 8 1018.8 1015.4 0.0
25/09:00am 11.4 8.2 8.3 81 1.6 E 15 19 8 10 1018.5 1015.0 9.4
25/08:30am 9.7 8.1 7.8 88 1.0 SE 6 9 3 5 1018.6 1015.2 9.4
25/08:00am 6.7 4.4 5.7 93 0.5 S 7 9 4 5 1018.1 1014.6 9.4
25/07:30am 5.7 2.4 4.7 93 0.5 S 11 13 6 7 1017.6 1014.2 9.4
25/07:00am 5.4 1.7 4.4 93 0.5 S 13 13 7 7 1017.4 1013.9 9.4
25/06:30am 5.4 2.1 4.4 93 0.5 S 11 11 6 6 1017.4 1013.9 9.4
25/06:00am 6.0 2.8 5.0 93 0.5 S 11 13 6 7 1017.0 1013.5 9.4
25/05:30am 5.6 1.9 4.6 93 0.5 SSW 13 13 7 7 1016.7 1013.3 9.4
25/05:00am 5.4 2.5 4.4 93 0.5 S 9 11 5 6 1016.5 1013.0 9.4
25/04:30am 5.7 2.8 4.7 93 0.5 SSW 9 11 5 6 1016.6 1013.1 9.4
25/04:00am 4.7 2.0 3.7 93 0.4 SW 7 9 4 5 1016.5 1013.0 9.4
25/03:30am 5.7 2.8 4.7 93 0.5 SW 9 11 5 6 1016.7 1013.3 9.4
25/03:00am 4.0 1.2 3.0 93 0.4 SW 7 9 4 5 1017.1 1013.6 9.4
25/02:46am 4.5 2.3 3.5 93 0.4 SW 4 7 2 4 1017.1 1013.6 9.4
25/02:30am 4.9 3.6 3.9 93 0.4 CALM 0 0 0 0 1017.2 1013.7 9.4
25/02:26am 4.7 2.9 3.7 93 0.4 SW 2 7 1 4 1017.2 1013.7 9.4
25/02:00am 6.8 4.1 5.7 93 0.5 SW 9 11 5 6 1017.3 1013.8 9.4
25/01:30am 6.0 3.5 5.0 93 0.5 SW 7 9 4 5 1017.2 1013.7 9.4
25/01:00am 5.9 4.8 4.9 93 0.5 CALM 0 0 0 0 1017.1 1013.6 9.4
25/12:30am 7.7 5.2 6.6 93 0.5 SW 9 11 5 6 1017.1 1013.6 9.4
25/12:00am 8.2 5.4 7.1 93 0.5 SW 11 11 6 6 1017.1 1013.6 9.4
 
Date/Time
EDT
Temp
°C
App
Temp
°C
Dew
Point
Rel
Hum
%
Delta-T
°C
Wind Press
QNH
hPa
Press
MSL
hPa
Rain
since 9 am
mm
Dir
 
Spd
km/h
Gust
km/h
Spd
kts
Gust
kts
24/11:30pm 9.3 7.0 7.4 88 1.0 SSW 9 11 5 6 1017.3 1013.8 9.4
24/11:00pm 9.0 6.3 7.5 90 0.7 SSW 11 15 6 8 1017.4 1013.9 9.4
24/10:30pm 8.5 5.9 6.1 85 1.2 S 9 13 5 7 1017.4 1013.9 9.4
24/10:00pm 10.6 7.2 7.7 82 1.5 SW 15 20 8 11 1017.3 1013.8 9.4
24/09:30pm 10.3 6.5 7.4 82 1.5 SW 17 20 9 11 1017.2 1013.7 9.4
24/09:00pm 11.1 6.9 7.4 78 1.9 SW 19 20 10 11 1017.0 1013.5 9.4
24/08:30pm 11.4 7.6 7.5 77 2.0 SW 17 20 9 11 1016.6 1013.1 9.4
24/08:00pm 12.2 8.3 8.7 79 1.8 SSW 19 26 10 14 1016.1 1012.6 9.4
24/07:30pm 12.8 9.0 8.9 77 2.1 SW 19 26 10 14 1015.4 1011.9 9.4
24/07:00pm 15.1 11.0 11.5 79 2.0 WSW 24 37 13 20 1015.0 1011.5 9.4
24/06:30pm 16.2 13.6 13.3 83 1.7 WSW 19 26 10 14 1014.4 1010.9 9.4
24/06:00pm 15.4 12.8 13.2 87 1.3 WSW 19 24 10 13 1014.2 1010.7 9.4
24/05:31pm 15.5 12.0 13.3 87 1.3 WSW 24 33 13 18 1014.1 1010.6 9.4
24/05:30pm 15.5 11.6 13.3 87 1.3 WSW 26 35 14 19 1014.1 1010.6 9.4
24/05:00pm 15.9 13.1 14.4 91 0.9 SW 22 28 12 15 1014.0 1010.5 9.4
24/04:50pm 15.7 14.3 14.6 93 0.7 SW 15 20 8 11 1013.9 1010.4 9.4
24/04:32pm 15.0 13.0 13.9 93 0.6 SW 17 22 9 12 1014.0 1010.5 9.4
24/04:30pm 14.8 12.7 13.7 93 0.6 SW 17 22 9 12 1014.1 1010.6 9.4
24/04:00pm 14.6 11.9 13.5 93 0.6 SW 20 28 11 15 1014.3 1010.8 9.4
24/03:30pm 14.8 12.4 13.7 93 0.6 SW 19 24 10 13 1014.4 1010.9 9.4
24/03:17pm 14.8 12.4 13.7 93 0.6 SW 19 24 10 13 1014.5 1011.0 9.4
24/03:00pm 15.0 12.6 13.9 93 0.6 SW 19 26 10 14 1014.7 1011.1 9.4
24/02:30pm 15.7 13.4 14.6 93 0.7 SW 20 24 11 13 1014.7 1011.1 9.4
24/02:23pm 15.7 14.0 14.6 93 0.7 SW 17 22 9 12 1014.8 1011.3 9.4
24/02:03pm 15.9 14.2 14.8 93 0.7 SW 17 22 9 12 1014.9 1011.4 7.4
24/02:00pm 16.0 14.4 14.9 93 0.7 SW 17 22 9 12 1014.8 1011.3 6.2
24/01:51pm 16.3 14.8 15.2 93 0.7 WSW 17 24 9 13 1015.0 1011.5 5.2
24/01:37pm 16.5 14.7 15.4 93 0.7 WSW 19 26 10 14 1015.1 1011.6 5.0
24/01:30pm 16.7 14.9 15.6 93 0.7 W 19 22 10 12 1015.1 1011.6 4.8
24/01:11pm 17.4 16.3 16.3 93 0.7 NW 17 24 9 13 1015.2 1011.7 4.4
24/01:00pm 17.2 16.0 16.1 93 0.7 NNW 17 24 9 13 1015.1 1011.6 3.8
24/12:54pm 17.1 15.3 16.0 93 0.7 NNW 20 35 11 19 1015.2 1011.7 3.6
24/12:30pm 17.2 15.1 16.1 93 0.7 NW 22 30 12 16 1015.5 1012.0 1.2
24/12:00pm 17.5 15.1 16.4 93 0.7 NNW 24 35 13 19 1015.7 1012.3 0.8
24/11:41am 17.9 15.3 16.8 93 0.7 NNW 26 39 14 21 1015.7 1012.3 0.8
24/11:30am 17.7 14.6 16.6 93 0.7 NNW 28 41 15 22 1015.6 1012.1 0.8
24/11:00am 21.2 17.4 14.8 67 3.9 NNW 28 41 15 22 1015.2 1011.7 0.0
24/10:30am 20.3 15.7 14.7 70 3.4 N 32 41 17 22 1015.3 1011.8 0.0
24/10:00am 19.0 17.3 14.7 76 2.6 NNW 17 24 9 13 1015.9 1012.4 0.0
24/09:30am 18.5 17.4 15.2 81 2.0 NNW 15 19 8 10 1015.9 1012.4 0.0
24/09:00am 18.0 15.6 14.3 79 2.2 N 20 30 11 16 1015.5 1012.0 0.4
24/08:30am 19.3 16.6 13.5 69 3.5 N 20 28 11 15 1015.5 1012.0 0.0
24/08:00am 19.1 17.2 13.1 68 3.5 N 15 19 8 10 1015.5 1012.0 0.0
24/07:30am 18.0 15.5 12.2 69 3.4 NNW 17 20 9 11 1015.5 1012.0 0.0
24/07:00am 18.1 15.1 12.1 68 3.5 N 19 22 10 12 1015.3 1011.8 0.0
24/06:30am 18.5 15.9 12.0 66 3.8 NNW 17 20 9 11 1015.4 1011.9 0.0

Other Formats:

Comma delimited format used in spreadsheet applications
http://www.bom.gov.au/fwo/IDN60801/IDN60801.95726.axf

JavaScript Object Notation format (JSON) in row-major order
http://www.bom.gov.au/fwo/IDN60801/IDN60801.95726.json